Wolvega, Netherlands
Current Conditions -  °F | °C
As of 2:55 AM on Thursday 27 Nov 2014 (Local Time) from EHLW Reporting Station
Haze Haze  
Wind Chill: 32°   Ceiling: 1000
Heat Index: 39°   Visibility: 2.5mi
Dew Point: 37°   Wind: 12mph
Humidity: 93%   Direction: 130°SE
Pressure: 29.83"   Gusts: NA
Location:  52.88°N, 6°E
Report Text: EHLW 270155Z AUTO 13010KT 4000 BR FEW006 OVC010 04/03 Q1010 GRN
Loading
Personal Weather Stations






























Interactive Weather Map New forecast layout! Learn more

10-Day Weather Forecast

Advertisements
Track Severe Weather on mobile